Metar Report
Metar
METAR K1B1 271856Z AUTO 22008G15KT 10SM BKN060 BKN095 25/11 A2990 A02 30
METAR K1B1 271756Z AUTO 31004KT 10SM SCT029 SCT050 BKN095 21/14 A2993 A02 29
METAR K1B1 271656Z AUTO 18011KT 10SM BKN095 23/13 A2995 A02 28
METAR K1B1 271556Z AUTO 21005KT 10SM OVC095 22/13 A2997 A02 27
METAR K1B1 271456Z AUTO 20009KT 10SM CLR 21/14 A2997 A02 26
METAR K1B1 271356Z AUTO 20005KT 10SM SCT090 19/13 A3000 A02 25
METAR K1B1 271256Z AUTO 00000KT 10SM -RA SCT075 OVC090 16/13 A3002 A02 24
METAR K1B1 271156Z AUTO 00000KT 10SM OVC100 15/13 A3002 A02 23
METAR K1B1 271056Z AUTO 00000KT 10SM SCT100 SCT120 14/13 A3001 A02 22
METAR K1B1 270956Z AUTO 00000KT 10SM CLR 14/13 A3000 A02 21
METAR K1B1 270856Z AUTO 00000KT 10SM SCT120 14/12 A3000 A02 20
METAR K1B1 270756Z AUTO 00000KT 10SM -RA BKN110 15/13 A3000 A02 19
METAR K1B1 270656Z AUTO 00000KT 10SM BKN090 15/13 A3000 A02 18
METAR K1B1 270556Z AUTO 00000KT 10SM OVC060 16/13 A3002 A02 17
METAR K1B1 270456Z AUTO 00000KT 10SM SCT060 BKN075 14/13 A3003 A02 16
METAR K1B1 270356Z AUTO 05003KT 10SM SCT070 SCT095 BKN110 16/13 A3003 A02 15
METAR K1B1 270256Z AUTO 00000KT 10SM BKN090 16/13 A3001 A02 14
METAR K1B1 270156Z AUTO 36005KT 10SM SCT085 OVC120 17/13 A3000 A02 13
METAR K1B1 270056Z AUTO 00000KT 10SM SCT075 17/13 A2997 A02 12
METAR K1B1 262356Z AUTO 06007KT 10SM BKN085 OVC110 19/13 A2998 A02 11
METAR K1B1 262256Z AUTO 03006KT 10SM BKN080 BKN090 21/14 A2997 A02 10
METAR K1B1 262156Z AUTO 02005KT 10SM BKN075 OVC090 21/13 A2996 A02 9
METAR K1B1 262056Z AUTO 20004KT 10SM SCT120 24/12 A2995 A02 8
METAR K1B1 261956Z AUTO 20005KT 10SM SCT055 BKN110 26/12 A2996 A02 7
METAR K1B1 261856Z AUTO 00000KT 10SM SCT110 25/12 A2997 A02 6
METAR K1B1 261845Z AUTO 00000KT 10SM SCT110 25/12 A2997 A02 5
METAR K1B1 261756Z AUTO 29003KT 10SM OVC110 24/12 A2998 A02 4
METAR K1B1 261656Z AUTO 00000KT 10SM OVC100 23/13 A3000 A02 3
METAR K1B1 261556Z AUTO 22005KT 10SM SCT041 BKN065 OVC095 22/13 A3002 A02 2
METAR K1B1 261456Z AUTO 00000KT 10SM SCT029 21/13 A3002 A02 1
METAR K1B1 261356Z AUTO 24003KT 10SM CLR 20/13 A3002 A02 0
METAR K1B1 261256Z AUTO 00000KT 10SM CLR 18/13 A3003 A02 69
METAR K1B1 261156Z AUTO 00000KT 10SM CLR 16/13 A3002 A02 68
METAR K1B1 261056Z AUTO 00000KT 10SM CLR 13/12 A3002 A02 67
METAR K1B1 260956Z AUTO 00000KT 10SM CLR 12/11 A3001 A02 P0001 66
METAR K1B1 260856Z AUTO 00000KT 10SM CLR 12/12 A2999 A02 65
METAR K1B1 260756Z AUTO 05003KT 1/2SM FG BKN002 13/12 A2998 A02 64
METAR K1B1 260656Z AUTO 00000KT 2SM BR SCT001 14/13 A3000 A02 63
METAR K1B1 260556Z AUTO 00000KT 10SM OVC110 15/14 A3000 A02 62
METAR K1B1 260456Z AUTO 00000KT 10SM OVC100 15/14 A3000 A02 P0001 61
METAR K1B1 260356Z AUTO 00000KT 10SM -RA OVC080 16/14 A3001 A02 60
METAR K1B1 260256Z AUTO 06004KT 10SM BKN085 OVC120 16/14 A3000 A02 P0004 59
METAR K1B1 260156Z AUTO 02005KT 10SM -RA SCT065 OVC080 18/13 A3001 A02 58
METAR K1B1 260056Z AUTO 00000KT 10SM SCT090 SCT110 18/12 A2995 A02 57
METAR K1B1 252356Z AUTO 36009KT 10SM SCT080 22/12 A2994 A02 56
METAR K1B1 252256Z AUTO 07004KT 10SM SCT080 24/16 A2990 A02 55
METAR K1B1 252156Z AUTO 02003KT 10SM BKN080 OVC090 26/14 A2989 A02 54
METAR K1B1 252056Z AUTO 00000KT 10SM SCT070 SCT080 28/13 A2988 A02 53
METAR K1B1 251956Z AUTO 20006KT 10SM CLR 28/15 A2989 A02 52
METAR K1B1 251856Z AUTO 21005KT 10SM BKN060 BKN090 BKN110 26/15 A2991 A02 51
METAR K1B1 251756Z AUTO 17006KT 10SM CLR 27/15 A2993 A02 50
METAR K1B1 251656Z AUTO 22006KT 190V250 10SM SCT070 SCT080 SCT120 27/16 A2996 A02 49
METAR K1B1 251556Z AUTO 20005KT 10SM SCT110 26/16 A2996 A02 48
METAR K1B1 251456Z AUTO 17003KT 10SM SCT030 24/16 A2997 A02 47
METAR K1B1 251356Z AUTO 17003KT 10SM CLR 23/16 A2999 A02 46
METAR K1B1 251256Z AUTO 18003KT 10SM BKN100 21/16 A2999 A02 45
METAR K1B1 251156Z AUTO 17004KT 10SM SCT100 19/16 A2999 A02 44
METAR K1B1 251056Z AUTO 17003KT 10SM CLR 16/14 A2997 A02 P0001 43
METAR K1B1 250956Z AUTO 00000KT 10SM CLR 14/13 A2996 A02 42
METAR K1B1 250856Z AUTO 00000KT 10SM CLR 14/13 A2994 A02 41
METAR K1B1 250756Z AUTO 00000KT 10SM CLR 15/14 A2994 A02 40
METAR K1B1 250656Z AUTO 20003KT 10SM CLR 16/16 A2994 A02 39
METAR K1B1 250556Z AUTO 00000KT 10SM CLR 17/16 A2994 A02 38
METAR K1B1 250456Z AUTO 00000KT 10SM BKN120 18/17 A2994 A02 37
METAR K1B1 250356Z AUTO 00000KT 10SM CLR 18/17 A2993 A02 36
METAR K1B1 250256Z AUTO 00000KT 10SM SCT070 BKN085 OVC100 19/17 A2991 A02 35
METAR K1B1 250156Z AUTO 01003KT 10SM -RA BKN060 BKN070 OVC090 21/16 A2991 A02 34
METAR K1B1 250056Z AUTO 01012G17KT 10SM BKN075 BKN090 23/15 A2983 A02 33
METAR K1B1 242356Z AUTO 00000KT 10SM SCT110 26/15 A2980 A02 32
METAR K1B1 242256Z AUTO 00000KT 10SM SCT080 28/13 A2977 A02 31